createdAt,value
2024-05-09T00:23:43.021Z,15
2024-05-09T00:51:59.418Z,19
2024-05-09T01:20:58.221Z,18
2024-05-09T01:49:51.979Z,18
2024-05-09T02:18:42.138Z,19
2024-05-09T02:47:29.002Z,22
2024-05-09T03:16:09.359Z,18
2024-05-09T03:45:04.772Z,19
2024-05-09T04:13:59.380Z,20
2024-05-09T04:43:00.771Z,19
2024-05-09T05:12:21.340Z,20
2024-05-09T05:41:16.722Z,18
2024-05-09T06:10:25.964Z,18
2024-05-09T06:38:49.612Z,20
2024-05-09T07:07:50.396Z,19
2024-05-09T07:36:57.654Z,19
2024-05-09T08:06:00.133Z,18
2024-05-09T08:34:52.068Z,18
2024-05-09T09:03:50.914Z,14
2024-05-09T09:32:33.185Z,13
2024-05-09T10:01:28.230Z,11
2024-05-09T10:30:21.621Z,11
2024-05-09T10:58:13.142Z,10
2024-05-09T11:27:00.127Z,10
2024-05-09T11:56:07.483Z,7
2024-05-09T12:25:06.345Z,8
2024-05-09T12:53:54.190Z,7
2024-05-09T13:22:48.241Z,7
2024-05-09T13:51:50.043Z,7
2024-05-09T14:20:46.611Z,7
2024-05-09T14:49:43.613Z,7
2024-05-09T15:18:42.204Z,8
2024-05-09T15:47:16.188Z,7
2024-05-09T16:16:11.953Z,7
2024-05-09T16:45:05.039Z,8
2024-05-09T17:13:59.581Z,8
2024-05-09T17:42:50.799Z,7
2024-05-09T18:11:46.044Z,7
2024-05-09T18:40:44.684Z,9
2024-05-09T19:09:06.808Z,8
2024-05-09T19:37:36.529Z,10
2024-05-09T20:05:51.899Z,11
2024-05-09T20:34:04.603Z,8
2024-05-09T21:02:42.215Z,10
2024-05-09T21:31:21.524Z,10
2024-05-09T22:00:11.350Z,8
2024-05-09T22:28:31.980Z,11
2024-05-09T22:57:29.407Z,11
2024-05-09T23:26:25.613Z,10
2024-05-09T23:55:33.382Z,11
